Time;durP1;ratioP1;P1;durP2;ratioP2;P2;SDS_P1;SDS_P2;PMS_P1;PMS_P2;Temp;Humidity;BMP_temperature;BMP_pressure;BME280_temperature;BME280_humidity;BME280_pressure;Samples;Min_cycle;Max_cycle;Signal;HPM_P1;HPM_P2
2022/10/01 00:00:14;;;;;;;8.07;7.07;;;;;;;10.57;100.00;100218.31;5094180;28;20023;-81
2022/10/01 00:02:39;;;;;;;7.55;6.82;;;;;;;10.58;100.00;100219.97;5111490;28;20451;-82
2022/10/01 00:05:10;;;;;;;7.93;7.13;;;;;;;10.57;100.00;100202.53;5110019;28;20022;-81
2022/10/01 00:07:43;;;;;;;7.50;6.90;;;;;;;10.57;100.00;100228.81;5095742;28;20052;-80
2022/10/01 00:10:10;;;;;;;7.43;6.72;;;;;;;10.57;100.00;100205.16;5092507;28;20046;-80
2022/10/01 00:12:37;;;;;;;6.82;6.13;;;;;;;10.56;100.00;100214.00;5101757;28;21082;-80
2022/10/01 00:15:04;;;;;;;9.15;6.95;;;;;;;10.54;100.00;100196.69;5089523;28;20059;-82
2022/10/01 00:17:29;;;;;;;7.38;6.63;;;;;;;10.53;100.00;100189.75;5090300;28;20142;-80
2022/10/01 00:19:54;;;;;;;7.43;6.40;;;;;;;10.52;100.00;100178.41;5090859;28;20549;-80
2022/10/01 00:22:20;;;;;;;9.77;7.05;;;;;;;10.52;100.00;100186.28;5087448;28;20082;-80
2022/10/01 00:24:46;;;;;;;8.02;6.90;;;;;;;10.51;100.00;100168.84;5099843;28;20028;-81
2022/10/01 00:27:12;;;;;;;7.65;6.90;;;;;;;10.50;100.00;100175.06;5108116;28;20054;-80
2022/10/01 00:29:38;;;;;;;7.60;6.90;;;;;;;10.50;100.00;100175.06;5109924;28;20024;-80
2022/10/01 00:32:03;;;;;;;8.60;7.43;;;;;;;10.50;100.00;100161.91;5109717;28;20537;-83
2022/10/01 00:34:29;;;;;;;9.15;6.60;;;;;;;10.54;100.00;100154.59;5108418;28;20076;-80
2022/10/01 00:36:54;;;;;;;8.25;6.90;;;;;;;10.51;100.00;100147.81;5109501;28;20053;-80
2022/10/01 00:39:20;;;;;;;7.72;6.93;;;;;;;10.53;100.00;100143.25;5109560;28;20106;-80
2022/10/01 00:41:45;;;;;;;7.85;6.75;;;;;;;10.53;100.00;100160.81;5097430;28;20096;-79
2022/10/01 00:44:36;;;;;;;9.70;7.00;;;;;;;10.55;100.00;100157.09;5090074;28;20024;-79
2022/10/01 00:47:19;;;;;;;7.13;6.45;;;;;;;10.57;100.00;100165.69;5095311;28;20372;-78
2022/10/01 00:49:46;;;;;;;7.30;6.60;;;;;;;10.56;100.00;100157.94;5089635;28;20398;-79
2022/10/01 00:52:17;;;;;;;7.53;6.70;;;;;;;10.56;100.00;100171.91;5109434;28;20024;-79
2022/10/01 00:54:52;;;;;;;7.55;6.85;;;;;;;10.58;100.00;100179.69;5109344;28;20340;-78
2022/10/01 00:57:20;;;;;;;9.25;6.68;;;;;;;10.58;100.00;100166.53;5109286;28;20424;-79
2022/10/01 00:59:47;;;;;;;8.50;6.30;;;;;;;10.58;100.00;100159.47;5103171;28;20036;-78
2022/10/01 01:02:12;;;;;;;7.80;6.38;;;;;;;10.58;100.00;100164.72;5109874;28;20391;-79
2022/10/01 01:04:40;;;;;;;6.85;6.22;;;;;;;10.58;100.00;100162.09;5109745;28;20027;-79
2022/10/01 01:07:06;;;;;;;8.73;6.43;;;;;;;10.59;100.00;100168.19;5110244;28;20031;-78
2022/10/01 01:09:37;;;;;;;7.85;6.25;;;;;;;10.57;100.00;100176.22;5110064;28;20023;-79
2022/10/01 01:12:32;;;;;;;10.10;6.50;;;;;;;10.57;100.00;100143.81;5089573;28;20066;-79
2022/10/01 01:15:30;;;;;;;8.52;6.20;;;;;;;10.53;100.00;100134.53;5092455;28;20098;-78
2022/10/01 01:18:28;;;;;;;6.93;6.22;;;;;;;10.52;100.00;100131.06;5071103;28;20043;-78
2022/10/01 01:21:02;;;;;;;7.78;6.65;;;;;;;10.49;100.00;100115.53;5102915;28;20031;-78
2022/10/01 01:23:50;;;;;;;6.88;6.10;;;;;;;10.49;100.00;100075.25;5108796;28;20299;-78
2022/10/01 01:26:31;;;;;;;7.40;5.95;;;;;;;10.47;100.00;100050.88;5107867;28;20049;-78
2022/10/01 01:29:03;;;;;;;6.47;5.88;;;;;;;10.43;100.00;100036.34;5107636;28;20023;-78
2022/10/01 01:31:40;;;;;;;8.15;5.38;;;;;;;10.45;100.00;100008.94;5097112;28;20038;-79
2022/10/01 01:34:11;;;;;;;9.15;5.35;;;;;;;10.42;100.00;99998.69;5103874;28;20028;-79
2022/10/01 01:36:40;;;;;;;6.35;5.13;;;;;;;10.41;100.00;99975.16;5087979;28;20020;-78
2022/10/01 01:39:10;;;;;;;5.75;4.63;;;;;;;10.40;100.00;99960.31;5088095;28;20027;-75
2022/10/01 01:41:42;;;;;;;8.30;5.25;;;;;;;10.38;100.00;99999.91;5102708;28;20031;-76
2022/10/01 01:44:11;;;;;;;6.20;4.95;;;;;;;10.37;100.00;100056.09;5108081;28;20457;-76
2022/10/01 01:46:40;;;;;;;7.25;5.00;;;;;;;10.38;100.00;100055.13;5109066;28;20099;-76
2022/10/01 01:49:06;;;;;;;6.85;5.47;;;;;;;10.37;100.00;100045.56;5108200;28;20051;-78
2022/10/01 01:51:50;;;;;;;6.97;5.38;;;;;;;10.38;100.00;100052.50;5106527;28;20031;-77
2022/10/01 01:54:17;;;;;;;6.38;5.10;;;;;;;10.38;100.00;100022.72;5107505;28;20035;-77
2022/10/01 01:56:42;;;;;;;5.95;4.85;;;;;;;10.37;100.00;100037.69;5110099;28;20035;-77
2022/10/01 01:59:08;;;;;;;5.30;4.80;;;;;;;10.37;100.00;100032.41;5107662;28;20036;-79
2022/10/01 02:01:39;;;;;;;5.50;5.00;;;;;;;10.37;100.00;100050.81;5095031;28;20028;-78
2022/10/01 02:04:21;;;;;;;6.05;4.72;;;;;;;10.40;100.00;100073.41;5089092;28;20039;-77
2022/10/01 02:07:27;;;;;;;5.33;4.83;;;;;;;10.38;100.00;100055.13;5092256;28;20027;-78
2022/10/01 02:10:17;;;;;;;4.68;4.03;;;;;;;10.37;100.00;100035.03;5110204;28;20024;-78
2022/10/01 02:13:16;;;;;;;4.82;4.18;;;;;;;10.37;100.00;100042.94;5105215;28;20032;-79
2022/10/01 02:15:52;;;;;;;4.80;3.95;;;;;;;10.35;100.00;100039.59;5089440;28;20058;-79
2022/10/01 02:18:29;;;;;;;3.97;3.50;;;;;;;10.35;100.00;100044.88;5087608;28;20146;-79
2022/10/01 02:21:18;;;;;;;5.03;4.05;;;;;;;10.37;100.00;100037.69;5096559;28;20020;-80
2022/10/01 02:23:50;;;;;;;6.05;3.90;;;;;;;10.36;100.00;100036.00;5102007;28;20392;-79
2022/10/01 02:26:19;;;;;;;3.70;3.40;;;;;;;10.37;100.00;100032.41;5088324;28;20346;-80
2022/10/01 02:28:48;;;;;;;4.35;3.50;;;;;;;10.38;100.00;100028.00;5103974;28;20043;-79
2022/10/01 02:31:15;;;;;;;4.10;3.70;;;;;;;10.38;100.00;100017.47;5097630;28;20360;-79
2022/10/01 02:33:42;;;;;;;3.22;2.92;;;;;;;10.38;100.00;100020.94;5108206;28;20068;-79
2022/10/01 02:36:12;;;;;;;3.70;3.25;;;;;;;10.40;100.00;100015.53;5108313;28;20023;-79
2022/10/01 02:38:41;;;;;;;2.80;2.58;;;;;;;10.40;100.00;100015.53;5105325;28;20031;-79
2022/10/01 02:41:10;;;;;;;3.03;2.80;;;;;;;10.40;100.00;100016.38;5094524;28;20113;-80
2022/10/01 02:43:52;;;;;;;4.25;3.17;;;;;;;10.42;100.00;100009.22;5109287;28;20051;-79
2022/10/01 02:46:38;;;;;;;3.47;3.17;;;;;;;10.44;100.00;100006.44;5090671;28;20032;-80
2022/10/01 02:49:03;;;;;;;3.25;2.88;;;;;;;10.43;100.00;100012.69;5088441;28;20077;-79
2022/10/01 02:51:57;;;;;;;3.63;3.13;;;;;;;10.43;100.00;100013.50;5107251;28;20302;-79
2022/10/01 02:54:33;;;;;;;3.25;2.83;;;;;;;10.45;100.00;99987.91;5102079;28;20092;-79
2022/10/01 02:59:43;;;;;;;2.95;2.70;;;;;;;10.48;100.00;99986.81;5092707;28;20031;-78
2022/10/01 03:02:08;;;;;;;2.97;2.60;;;;;;;10.48;100.00;100003.41;5108111;28;20546;-79
2022/10/01 03:04:37;;;;;;;3.58;2.30;;;;;;;10.50;100.00;100003.28;5110617;28;20087;-79
2022/10/01 03:07:03;;;;;;;2.08;1.80;;;;;;;10.52;100.00;99999.56;5112426;28;20044;-80
2022/10/01 03:09:33;;;;;;;2.05;1.85;;;;;;;10.53;100.00;99995.94;5111840;28;20035;-79
2022/10/01 03:11:59;;;;;;;3.28;2.20;;;;;;;10.55;100.00;99993.19;5098887;28;20019;-79
2022/10/01 03:14:25;;;;;;;1.92;1.83;;;;;;;10.56;100.00;100005.38;5106398;28;20032;-80
2022/10/01 03:16:51;;;;;;;2.40;1.80;;;;;;;10.57;100.00;99989.47;5091302;28;20076;-78
2022/10/01 03:19:16;;;;;;;2.80;1.63;;;;;;;10.58;100.00;99988.50;5091258;28;20585;-79
2022/10/01 03:21:42;;;;;;;2.40;1.60;;;;;;;10.60;100.00;99978.66;5101988;28;20032;-78
2022/10/01 03:24:07;;;;;;;4.28;1.60;;;;;;;10.63;100.00;99978.38;5111295;28;20019;-80
2022/10/01 03:26:32;;;;;;;1.63;1.50;;;;;;;10.62;100.00;99975.91;5112040;28;20472;-79
2022/10/01 03:28:58;;;;;;;2.10;1.40;;;;;;;10.65;100.00;99994.03;5101702;28;20031;-78
2022/10/01 03:31:23;;;;;;;1.40;1.30;;;;;;;10.67;100.00;99978.94;5099411;28;20402;-79
2022/10/01 03:33:48;;;;;;;2.50;1.42;;;;;;;10.68;100.00;99984.06;5110596;28;20011;-78
2022/10/01 03:36:14;;;;;;;2.58;1.30;;;;;;;10.68;100.00;99989.34;5110788;27;20483;-78
2022/10/01 03:38:39;;;;;;;1.85;1.42;;;;;;;10.70;100.00;99991.00;5111330;28;20039;-79
2022/10/01 03:41:04;;;;;;;2.03;1.30;;;;;;;10.72;100.00;99983.81;5100651;28;20036;-78
2022/10/01 03:43:30;;;;;;;1.30;1.10;;;;;;;10.74;100.00;99982.69;5090242;28;20082;-78
2022/10/01 03:45:55;;;;;;;1.20;1.10;;;;;;;10.77;100.00;99992.13;5095085;28;20480;-79
2022/10/01 03:48:22;;;;;;;1.30;1.15;;;;;;;10.80;100.00;99983.94;5091328;28;20396;-79
2022/10/01 03:50:54;;;;;;;1.10;1.00;;;;;;;10.83;100.00;99996.88;5098481;28;20088;-79
2022/10/01 03:53:20;;;;;;;;;;;;;;;10.87;100.00;99990.34;5109715;28;20023;-80
2022/10/01 03:55:46;;;;;;;1.85;1.00;;;;;;;10.87;100.00;99993.00;5111946;28;19960;-79
2022/10/01 03:58:11;;;;;;;2.15;1.08;;;;;;;10.89;100.00;99991.06;5110337;28;20036;-78
2022/10/01 04:00:36;;;;;;;3.67;1.10;;;;;;;10.92;100.00;99990.78;5104581;28;20110;-78
2022/10/01 04:03:02;;;;;;;2.05;0.90;;;;;;;10.92;100.00;99990.78;5098723;28;20484;-79
2022/10/01 04:05:27;;;;;;;1.15;0.80;;;;;;;10.93;100.00;99997.69;5096532;28;20039;-79
2022/10/01 04:07:52;;;;;;;1.20;1.05;;;;;;;10.95;100.00;99995.75;5110023;28;20015;-79
2022/10/01 04:10:18;;;;;;;1.85;1.00;;;;;;;10.98;100.00;100011.28;5108392;28;20106;-79
2022/10/01 04:12:43;;;;;;;1.05;1.00;;;;;;;11.01;100.00;100003.09;5090228;28;20023;-79
2022/10/01 04:15:12;;;;;;;1.60;0.80;;;;;;;11.02;100.00;100015.31;5090518;28;20024;-80
2022/10/01 04:17:37;;;;;;;2.08;0.90;;;;;;;11.04;100.00;100000.19;5089397;28;20484;-79
2022/10/01 04:20:02;;;;;;;0.98;0.80;;;;;;;11.06;100.00;100006.16;5101328;28;20022;-80
2022/10/01 04:22:28;;;;;;;1.35;0.80;;;;;;;11.10;100.00;100011.97;5109961;28;20023;-80
2022/10/01 04:24:53;;;;;;;1.95;0.82;;;;;;;11.10;100.00;100019.88;5109763;28;20059;-80
2022/10/01 04:27:19;;;;;;;0.93;0.80;;;;;;;11.12;100.00;100016.13;5108327;28;20054;-80
2022/10/01 04:29:44;;;;;;;1.00;0.80;;;;;;;11.14;100.00;100016.00;5110873;28;20031;-80
2022/10/01 04:32:09;;;;;;;2.05;0.80;;;;;;;11.16;100.00;100022.78;5091967;28;20020;-79
2022/10/01 04:34:53;;;;;;;1.30;0.82;;;;;;;11.17;100.00;100013.09;5088705;28;20469;-79
2022/10/01 04:37:19;;;;;;;1.42;1.00;;;;;;;11.20;100.00;100016.28;5092326;28;20031;-79
2022/10/01 04:39:44;;;;;;;1.00;0.80;;;;;;;11.20;100.00;100020.72;5089165;28;20087;-80
2022/10/01 04:42:12;;;;;;;1.63;1.00;;;;;;;11.23;100.00;100021.28;5105447;28;20066;-79
2022/10/01 04:44:37;;;;;;;1.17;1.08;;;;;;;11.24;100.00;100030.84;5110857;28;20042;-79
2022/10/01 04:47:02;;;;;;;1.65;1.17;;;;;;;11.27;100.00;100022.69;5109417;28;20023;-78
2022/10/01 04:49:28;;;;;;;2.17;1.17;;;;;;;11.28;100.00;100021.72;5107694;28;20085;-80
2022/10/01 04:51:53;;;;;;;2.90;1.30;;;;;;;11.29;100.00;100026.00;5108577;28;20059;-79
2022/10/01 04:54:18;;;;;;;1.95;1.50;;;;;;;11.33;100.00;100034.47;5101329;28;20142;-79
2022/10/01 04:56:44;;;;;;;2.80;1.40;;;;;;;11.35;100.00;100031.69;5089683;28;20411;-79
2022/10/01 04:59:09;;;;;;;1.80;1.30;;;;;;;11.38;100.00;100037.50;5090463;28;20081;-80
2022/10/01 05:01:35;;;;;;;2.03;1.30;;;;;;;11.39;100.00;100040.97;5098646;28;20053;-79
2022/10/01 05:04:00;;;;;;;3.90;1.60;;;;;;;11.40;100.00;100042.63;5109800;28;20020;-78
2022/10/01 05:06:25;;;;;;;2.95;1.65;;;;;;;11.42;100.00;100044.16;5109619;28;20024;-80
2022/10/01 05:08:51;;;;;;;1.60;1.50;;;;;;;11.46;100.00;100042.06;5109862;28;20046;-79
2022/10/01 05:11:17;;;;;;;5.30;1.85;;;;;;;11.48;100.00;100053.31;5104902;28;20479;-79
2022/10/01 05:13:42;;;;;;;2.55;1.83;;;;;;;11.48;100.00;100051.50;5089245;28;20028;-79
2022/10/01 05:16:08;;;;;;;4.80;2.00;;;;;;;11.51;100.00;100055.66;5087272;28;20074;-78
2022/10/01 05:18:33;;;;;;;4.50;1.83;;;;;;;11.52;100.00;100058.16;5088026;28;20032;-79
2022/10/01 05:21:03;;;;;;;5.18;2.85;;;;;;;11.55;100.00;100068.41;5103885;28;20031;-78
2022/10/01 05:23:29;;;;;;;2.78;2.15;;;;;;;11.57;100.00;100070.91;5108411;28;20026;-78
2022/10/01 05:25:54;;;;;;;3.10;2.10;;;;;;;11.58;100.00;100072.56;5108787;28;20118;-78
2022/10/01 05:28:19;;;;;;;3.17;2.30;;;;;;;11.60;100.00;100075.91;5095455;28;20049;-78
2022/10/01 05:30:45;;;;;;;3.45;2.42;;;;;;;11.62;100.00;100081.88;5093360;28;20027;-78
2022/10/01 05:33:10;;;;;;;4.18;2.60;;;;;;;11.64;100.00;100093.13;5087791;28;20051;-79
2022/10/01 05:35:35;;;;;;;4.18;2.60;;;;;;;11.65;100.00;100083.41;5089063;28;20016;-79
2022/10/01 05:38:04;;;;;;;3.00;2.70;;;;;;;11.68;100.00;100083.13;5087112;28;20514;-79
2022/10/01 05:40:30;;;;;;;2.63;2.42;;;;;;;11.69;100.00;100093.53;5090626;28;20062;-79
2022/10/01 05:42:57;;;;;;;3.67;2.80;;;;;;;11.70;100.00;100091.72;5089444;28;20465;-79
2022/10/01 05:45:23;;;;;;;4.00;2.90;;;;;;;11.72;100.00;100080.06;5092746;28;20373;-80
2022/10/01 05:48:00;;;;;;;4.25;3.30;;;;;;;11.74;100.00;100087.84;5088179;28;20024;-79
2022/10/01 05:50:30;;;;;;;4.47;3.10;;;;;;;11.72;100.00;100085.34;5089363;28;20027;-79
2022/10/01 05:52:59;;;;;;;4.45;3.70;;;;;;;11.75;100.00;100097.41;5087495;28;20024;-80
2022/10/01 05:55:26;;;;;;;6.68;3.50;;;;;;;11.77;100.00;100098.09;5089432;28;20024;-81
2022/10/01 05:58:06;;;;;;;4.70;3.63;;;;;;;11.79;100.00;100104.94;5088037;28;20125;-81
2022/10/01 06:00:33;;;;;;;4.45;3.80;;;;;;;11.80;100.00;100103.13;5090206;28;20027;-81
2022/10/01 06:03:00;;;;;;;5.05;3.80;;;;;;;11.80;100.00;100111.03;5089398;28;20023;-80
2022/10/01 06:05:27;;;;;;;4.38;3.97;;;;;;;11.80;100.00;100108.41;5088135;28;20020;-81
2022/10/01 06:07:52;;;;;;;6.30;3.88;;;;;;;11.81;100.00;100110.06;5088176;28;20534;-81
2022/10/01 06:10:19;;;;;;;6.38;4.07;;;;;;;11.80;100.00;100116.31;5104256;28;20051;-80
2022/10/01 06:12:44;;;;;;;4.70;4.07;;;;;;;11.80;100.00;100109.22;5104542;28;20031;-81
2022/10/01 06:15:10;;;;;;;6.47;4.90;;;;;;;11.79;100.00;100104.09;5108713;28;20027;-81
2022/10/01 06:17:42;;;;;;;5.82;4.30;;;;;;;11.80;100.00;100103.97;5105640;28;20027;-81
2022/10/01 06:20:10;;;;;;;5.20;4.70;;;;;;;11.81;100.00;100121.44;5096088;28;20024;-81
2022/10/01 06:22:36;;;;;;;6.82;5.10;;;;;;;11.80;100.00;100122.41;5106964;28;20032;-79
2022/10/01 06:25:01;;;;;;;5.65;5.15;;;;;;;11.81;100.00;100126.72;5110492;28;20027;-82
2022/10/01 06:27:26;;;;;;;6.20;5.53;;;;;;;11.84;100.00;100122.97;5111287;28;20124;-79
2022/10/01 06:29:52;;;;;;;8.30;5.82;;;;;;;11.86;100.00;100119.22;5109412;28;20115;-79
2022/10/01 06:32:18;;;;;;;10.30;6.10;;;;;;;11.85;100.00;100112.28;5100548;28;20024;-80
2022/10/01 06:34:44;;;;;;;16.95;6.38;;;;;;;11.87;100.00;100123.50;5100847;28;20024;-79
2022/10/01 06:37:09;;;;;;;9.77;6.38;;;;;;;11.92;100.00;100133.63;5101821;28;20361;-79
2022/10/01 06:39:35;;;;;;;7.78;6.68;;;;;;;11.92;100.00;100123.91;5102657;28;20035;-79
2022/10/01 06:42:00;;;;;;;7.80;6.15;;;;;;;11.96;100.00;100128.91;5099680;28;20023;-79
2022/10/01 06:44:25;;;;;;;8.52;6.88;;;;;;;12.00;100.00;100125.03;5105951;28;20036;-80
2022/10/01 06:46:51;;;;;;;8.20;6.72;;;;;;;12.04;100.00;100136.97;5105656;28;20560;-80
2022/10/01 06:49:19;;;;;;;7.60;6.35;;;;;;;12.06;100.00;100142.94;5101264;28;20012;-79
2022/10/01 06:54:29;;;;;;;10.60;6.95;;;;;;;12.16;100.00;100149.03;5112288;28;20359;-79
2022/10/01 06:56:54;;;;;;;10.52;7.30;;;;;;;12.21;100.00;100144.16;5113115;28;20028;-80
2022/10/01 06:59:19;;;;;;;7.57;6.78;;;;;;;12.29;100.00;100146.91;5111267;28;20082;-80
2022/10/01 07:01:48;;;;;;;7.85;6.82;;;;;;;12.38;100.00;100153.13;5110738;28;20058;-80
2022/10/01 07:04:13;;;;;;;8.57;7.22;;;;;;;12.43;100.00;100150.94;5105311;28;20039;-79
2022/10/01 07:06:39;;;;;;;13.00;7.10;;;;;;;12.48;100.00;100151.34;5112016;28;20027;-80
2022/10/01 07:09:07;;;;;;;7.70;6.70;;;;;;;12.52;100.00;100161.47;5104436;28;20039;-80
2022/10/01 07:11:35;;;;;;;8.32;6.93;;;;;;;12.58;100.00;100161.88;5105803;28;20028;-79
2022/10/01 07:14:00;;;;;;;7.72;6.68;;;;;;;12.61;100.00;100159.75;5106541;28;20023;-79
2022/10/01 07:16:26;;;;;;;7.95;6.63;;;;;;;12.66;100.00;100161.97;5106177;28;20022;-80
2022/10/01 07:18:51;;;;;;;11.13;7.07;;;;;;;12.71;100.00;100172.94;5108040;28;20027;-79
2022/10/01 07:21:16;;;;;;;8.07;6.97;;;;;;;12.78;100.00;100174.00;5103776;28;20472;-79
2022/10/01 07:23:42;;;;;;;7.95;7.13;;;;;;;12.86;100.00;100171.50;5104134;28;20148;-80
2022/10/01 07:26:08;;;;;;;10.43;7.13;;;;;;;12.94;100.00;100162.84;5107557;28;20533;-80
2022/10/01 07:28:33;;;;;;;9.32;6.82;;;;;;;12.97;100.00;100163.41;5110404;28;20031;-79
2022/10/01 07:31:02;;;;;;;8.93;7.13;;;;;;;13.00;100.00;100183.41;5111598;28;20118;-79
2022/10/01 07:33:28;;;;;;;11.25;6.93;;;;;;;13.02;100.00;100189.38;5111475;28;20012;-80
2022/10/01 07:35:53;;;;;;;9.02;6.47;;;;;;;13.02;100.00;100194.66;5111633;28;20073;-80
2022/10/01 07:38:19;;;;;;;12.77;6.82;;;;;;;13.01;100.00;100196.47;5100931;28;20028;-80
2022/10/01 07:40:50;;;;;;;8.85;6.78;;;;;;;13.00;100.00;100200.06;5102085;28;20037;-80
2022/10/01 07:43:15;;;;;;;11.70;6.88;;;;;;;12.99;100.00;100193.13;5104989;28;20047;-80
2022/10/01 07:45:41;;;;;;;13.02;7.40;;;;;;;12.97;100.00;100210.94;5102579;28;20024;-80
2022/10/01 07:48:06;;;;;;;12.30;8.05;;;;;;;12.98;100.00;100219.69;5103876;28;20395;-80
2022/10/01 07:50:32;;;;;;;12.95;8.90;;;;;;;12.97;100.00;100221.50;5096855;28;20038;-80
2022/10/01 07:52:58;;;;;;;13.88;8.63;;;;;;;12.99;100.00;100224.81;5109840;28;20030;-81
2022/10/01 07:55:25;;;;;;;12.60;8.65;;;;;;;12.98;100.00;100233.72;5110038;28;20083;-85
2022/10/01 07:57:52;;;;;;;14.77;8.82;;;;;;;12.96;100.00;100233.03;5109116;28;20635;-85
2022/10/01 08:00:18;;;;;;;13.40;9.18;;;;;;;12.99;100.00;100239.84;5110081;28;20047;-85
2022/10/01 08:02:49;;;;;;;11.45;8.63;;;;;;;13.00;100.00;100247.59;5111363;28;20032;-85
2022/10/01 08:05:19;;;;;;;12.95;9.38;;;;;;;13.03;100.00;100243.84;5093928;28;20026;-85
2022/10/01 08:07:45;;;;;;;10.63;9.18;;;;;;;13.03;100.00;100242.03;5111763;28;20475;-85
2022/10/01 08:10:11;;;;;;;10.68;9.00;;;;;;;13.08;100.00;100250.34;5091450;28;20073;-85
2022/10/01 08:12:36;;;;;;;10.02;8.95;;;;;;;13.10;100.00;100248.41;5104973;28;20106;-86
2022/10/01 08:15:01;;;;;;;11.38;9.20;;;;;;;13.19;100.00;100254.66;5110104;28;20395;-82
2022/10/01 08:17:27;;;;;;;10.20;8.85;;;;;;;13.26;100.00;100263.69;5110449;28;20110;-83
2022/10/01 08:19:52;;;;;;;14.25;8.45;;;;;;;13.29;100.00;100254.63;5109020;28;20026;-82
2022/10/01 08:22:18;;;;;;;11.38;8.20;;;;;;;13.35;100.00;100272.56;5097311;28;20077;-82
2022/10/01 08:24:43;;;;;;;12.38;7.43;;;;;;;13.37;100.00;100266.13;5094517;28;20028;-82
2022/10/01 08:27:08;;;;;;;8.23;7.38;;;;;;;13.43;100.00;100273.47;5109228;28;20059;-82
2022/10/01 08:29:37;;;;;;;11.52;7.03;;;;;;;13.47;100.00;100279.31;5109781;28;20031;-82
2022/10/01 08:32:02;;;;;;;9.80;6.05;;;;;;;13.50;100.00;100276.38;5109478;28;20026;-81
2022/10/01 08:34:28;;;;;;;8.00;5.40;;;;;;;13.55;100.00;100278.56;5109135;28;20662;-81
2022/10/01 08:36:53;;;;;;;9.25;5.40;;;;;;;13.54;100.00;100287.47;5096274;28;20031;-82
2022/10/01 08:39:19;;;;;;;7.80;4.60;;;;;;;13.57;100.00;100288.00;5091532;28;20499;-81
2022/10/01 08:41:56;;;;;;;7.32;3.88;;;;;;;13.56;100.00;100288.16;5090984;28;20023;-82
2022/10/01 08:44:36;;;;;;;6.38;3.40;;;;;;;13.60;100.00;100279.78;5096435;28;20074;-82
2022/10/01 08:47:11;;;;;;;7.05;3.65;;;;;;;13.71;100.00;100289.34;5093778;28;20049;-82
2022/10/01 08:49:47;;;;;;;6.15;3.60;;;;;;;13.98;100.00;100289.31;5109834;28;20383;-82
2022/10/01 08:52:23;;;;;;;6.47;3.58;;;;;;;14.06;100.00;100288.59;5089831;28;20035;-82
2022/10/01 08:55:00;;;;;;;8.68;3.40;;;;;;;14.04;100.00;100290.56;5089992;28;20368;-82
2022/10/01 08:57:31;;;;;;;8.63;3.28;;;;;;;13.96;100.00;100298.38;5106723;28;20037;-81
2022/10/01 08:59:59;;;;;;;5.63;2.90;;;;;;;13.91;100.00;100295.34;5100487;28;20429;-81
2022/10/01 09:02:27;;;;;;;7.60;3.40;;;;;;;13.93;100.00;100302.16;5105519;28;20023;-83
2022/10/01 09:04:56;;;;;;;9.45;4.00;;;;;;;14.00;100.00;100310.34;5106419;28;20035;-83
2022/10/01 09:07:56;;;;;;;7.40;3.45;;;;;;;14.10;100.00;100305.84;5091129;28;20077;-81
2022/10/01 09:10:42;;;;;;;9.75;4.28;;;;;;;14.30;100.00;100314.47;5106950;28;20177;-83
2022/10/01 09:13:46;;;;;;;13.32;4.97;;;;;;;14.44;100.00;100299.91;5110398;28;20024;-83
2022/10/01 09:16:28;;;;;;;13.48;4.60;;;;;;;14.65;100.00;100311.84;5044775;28;20064;-83
2022/10/01 09:19:09;;;;;;;15.00;4.57;;;;;;;14.79;100.00;100318.41;5047562;28;20059;-82
2022/10/01 09:21:46;;;;;;;16.35;4.30;;;;;;;14.93;100.00;100324.97;5075282;28;20392;-83
2022/10/01 09:24:14;;;;;;;15.82;4.22;;;;;;;15.01;100.00;100328.53;5087451;28;20105;-83
2022/10/01 09:26:45;;;;;;;13.13;4.38;;;;;;;15.09;100.00;100327.72;5088805;28;20031;-83
2022/10/01 09:29:40;;;;;;;14.10;4.18;;;;;;;15.21;100.00;100344.19;5087613;28;20499;-82
2022/10/01 09:32:06;;;;;;;18.83;4.15;;;;;;;15.35;100.00;100335.69;5089965;28;20035;-83
2022/10/01 09:34:38;;;;;;;18.10;4.68;;;;;;;15.53;100.00;100336.44;5088545;28;20546;-83
2022/10/01 09:37:18;;;;;;;15.32;3.63;;;;;;;15.74;100.00;100344.06;5089200;28;20032;-83
2022/10/01 09:39:53;;;;;;;18.63;4.00;;;;;;;15.86;100.00;100344.59;5088651;28;20232;-84
2022/10/01 09:42:23;;;;;;;14.18;3.60;;;;;;;15.98;100.00;100348.63;5089062;28;20059;-83
2022/10/01 09:44:49;;;;;;;17.08;3.70;;;;;;;16.02;99.19;100342.03;5087897;28;20027;-83
2022/10/01 09:47:17;;;;;;;18.40;3.08;;;;;;;15.92;96.68;100341.31;5089382;28;20050;-82
2022/10/01 09:49:43;;;;;;;16.35;3.63;;;;;;;15.85;96.02;100345.59;5099558;28;20104;-82
2022/10/01 09:52:26;;;;;;;16.77;3.17;;;;;;;15.73;98.98;100344.22;5100226;28;20020;-82
2022/10/01 09:54:57;;;;;;;;;;;;;;;15.87;100.00;100340.94;5090688;28;20034;-83
2022/10/01 09:57:39;;;;;;;14.27;2.83;;;;;;;16.01;98.31;100343.00;5087968;28;20269;-81
2022/10/01 10:00:16;;;;;;;16.20;3.35;;;;;;;16.13;97.33;100347.03;5092989;28;20376;-81
2022/10/01 10:02:44;;;;;;;15.07;2.90;;;;;;;16.37;96.19;100353.38;5093816;28;20052;-81
2022/10/01 10:05:27;;;;;;;15.65;3.47;;;;;;;16.35;94.43;100356.19;5093007;28;20107;-81
2022/10/01 10:08:09;;;;;;;16.65;2.75;;;;;;;16.24;94.60;100360.00;5111582;28;20031;-81
2022/10/01 10:10:38;;;;;;;18.45;3.17;;;;;;;16.09;94.02;100364.28;5093984;28;20023;-80
2022/10/01 10:13:04;;;;;;;20.42;4.20;;;;;;;15.87;95.56;100372.78;5091784;28;20031;-81
2022/10/01 10:15:31;;;;;;;16.30;3.67;;;;;;;15.74;97.39;100375.88;5092300;28;20035;-81
2022/10/01 10:18:10;;;;;;;13.35;3.22;;;;;;;15.68;98.97;100384.47;5109133;28;20024;-81
2022/10/01 10:20:39;;;;;;;16.33;3.25;;;;;;;15.76;100.00;100381.03;5096286;28;20360;-81
2022/10/01 10:23:14;;;;;;;11.45;3.00;;;;;;;15.86;100.00;100382.56;5112630;28;20016;-81
2022/10/01 10:25:40;;;;;;;18.63;3.55;;;;;;;16.02;100.00;100387.13;5102165;28;20032;-80
2022/10/01 10:28:18;;;;;;;14.93;3.15;;;;;;;16.09;98.99;100389.97;5112214;28;20023;-80
2022/10/01 10:30:43;;;;;;;14.25;3.05;;;;;;;16.12;98.87;100398.44;5113731;28;20611;-80
2022/10/01 10:33:13;;;;;;;10.57;2.75;;;;;;;16.23;97.90;100400.81;5112947;28;20102;-80
2022/10/01 10:35:39;;;;;;;14.45;2.95;;;;;;;16.36;96.83;100404.81;5113964;28;20080;-80
2022/10/01 10:38:05;;;;;;;14.30;2.83;;;;;;;16.50;98.01;100399.72;5111841;28;20019;-81
2022/10/01 10:40:44;;;;;;;13.52;3.05;;;;;;;16.62;94.31;100405.56;5111254;28;20028;-79
2022/10/01 10:43:21;;;;;;;10.95;3.20;;;;;;;16.69;93.21;100411.06;5112144;28;20037;-80
2022/10/01 10:45:55;;;;;;;12.40;2.58;;;;;;;16.90;92.41;100409.63;5113491;28;20036;-80
2022/10/01 10:48:35;;;;;;;17.40;3.25;;;;;;;17.03;90.60;100417.09;5111007;28;20038;-81
2022/10/01 10:51:03;;;;;;;12.88;2.63;;;;;;;17.25;89.05;100417.44;5091378;28;20027;-81
2022/10/01 10:53:43;;;;;;;15.65;3.15;;;;;;;17.60;90.02;100421.53;5092580;28;20018;-79
2022/10/01 10:56:23;;;;;;;13.98;3.00;;;;;;;17.72;89.76;100430.88;5098420;28;20023;-81
2022/10/01 10:58:54;;;;;;;14.18;3.20;;;;;;;17.44;90.31;100436.53;5112803;28;20487;-80
2022/10/01 11:01:28;;;;;;;13.30;3.22;;;;;;;17.43;91.38;100436.69;5111579;28;20106;-80
2022/10/01 11:03:59;;;;;;;11.35;2.90;;;;;;;17.23;88.64;100438.88;5111121;28;20027;-80
2022/10/01 11:06:25;;;;;;;13.43;2.85;;;;;;;17.13;82.59;100438.19;5112657;28;20062;-79
2022/10/01 11:09:06;;;;;;;13.00;2.50;;;;;;;17.09;86.23;100450.16;5110461;28;20047;-80
2022/10/01 11:11:56;;;;;;;11.45;2.70;;;;;;;17.23;83.08;100457.50;5111778;28;20131;-79
2022/10/01 11:14:34;;;;;;;11.73;2.72;;;;;;;17.29;82.17;100463.97;5112303;27;20565;-80
2022/10/01 11:17:21;;;;;;;10.40;2.72;;;;;;;17.37;82.72;100469.28;5112226;28;20184;-80
2022/10/01 11:20:13;;;;;;;13.90;2.88;;;;;;;17.36;81.21;100468.44;5111467;28;20012;-79
2022/10/01 11:23:04;;;;;;;11.48;2.55;;;;;;;17.51;81.95;100471.25;5106657;28;20028;-82
2022/10/01 11:25:40;;;;;;;14.50;2.80;;;;;;;17.59;80.36;100473.06;5105927;28;20039;-81
2022/10/01 11:28:28;;;;;;;12.55;2.45;;;;;;;17.65;80.46;100481.25;5110131;28;20493;-81
2022/10/01 11:31:13;;;;;;;12.27;2.70;;;;;;;17.71;79.00;100477.09;5091926;28;20024;-81
2022/10/01 11:33:50;;;;;;;12.60;3.10;;;;;;;17.89;77.75;100491.03;5104136;28;20031;-81
2022/10/01 11:36:31;;;;;;;12.80;2.78;;;;;;;18.07;77.56;100483.69;5110868;28;20603;-80